Latest Weather Observations for Croker Island Airport

IDD60801

Issued at 7:01 pm CST Sunday 20 August 2017 (issued every 30 minutes, with the page automatically refreshed every 10 minutes)

About weather observations | Map of weather stations | Latest weather observations for NT | Other Formats
Station Details ID: 014308 Name: CROKER ISLAND AIRPORT Lat: -11.16 Lon: 132.48 Height: 9.2 m
Data from the previous 72 hours. | See also: Recent months at Croker Island Airport
Date/Time
CST
Temp
°C
App
Temp
°C
Dew
Point
°C
Rel
Hum
%
Delta-T
°C
Wind Press
QNH
hPa
Press
MSL
hPa
Rain since
9am
mm
Dir  Spd
km/h
Gust
km/h
Spd
kts
Gust
kts
20/07:00pm 25.2 27.1 20.5 75 3.1 NE 11 15 6 8 1010.8 1010.7 0.2
20/06:30pm 26.1 27.8 20.2 70 3.9 ENE 11 19 6 10 1010.6 1010.5 0.2
20/06:00pm 27.3 28.1 19.9 64 4.8 ENE 15 22 8 12 1010.6 1010.5 0.2
20/05:30pm 28.4 29.4 20.2 61 5.4 ENE 15 28 8 15 1010.6 1010.5 0.2
20/05:00pm 28.7 27.0 18.2 53 6.7 ENE 24 32 13 17 1010.5 1010.4 0.2
20/04:30pm 29.3 27.6 18.1 51 7.2 ENE 24 35 13 19 1010.7 1010.6 0.2
20/04:00pm 29.8 27.2 16.9 45 8.1 E 26 41 14 22 1010.8 1010.7 0.2
20/03:30pm 30.0 27.7 17.5 47 7.9 E 26 43 14 23 1011.0 1010.9 0.2
20/03:00pm 29.9 27.4 17.0 45 8.1 ESE 26 41 14 22 1011.4 1011.3 0.2
20/02:30pm 30.1 27.8 17.5 46 8.0 E 26 41 14 22 1011.7 1011.6 0.2
20/02:00pm 30.9 31.0 19.9 52 7.2 ESE 19 32 10 17 1012.1 1012.0 0.2
20/01:30pm 30.2 29.2 19.6 53 6.9 ESE 24 39 13 21 1012.4 1012.3 0.2
20/01:00pm 30.6 30.6 20.2 53 6.9 ESE 20 30 11 16 1012.8 1012.7 0.2
20/12:30pm 30.6 31.8 21.4 58 6.2 ESE 17 28 9 15 1013.2 1013.1 0.2
20/12:00pm 30.6 30.3 21.1 57 6.4 ENE 24 33 13 18 1013.5 1013.4 0.2
20/11:30am 29.6 28.9 19.6 55 6.5 E 22 35 12 19 1013.9 1013.8 0.0
20/11:00am 29.0 29.5 21.2 62 5.2 E 20 32 11 17 1014.4 1014.3 0.0
20/10:30am 28.9 29.3 20.9 62 5.3 E 20 32 11 17 1014.7 1014.6 0.0
20/10:00am 28.4 28.5 21.2 65 4.8 E 22 32 12 17 1014.9 1014.8 0.0
20/09:30am 27.5 27.3 20.6 66 4.5 E 22 33 12 18 1014.9 1014.8 0.0
20/09:00am 26.6 28.2 22.2 77 3.0 E 17 26 9 14 1014.9 1014.8 0.0
20/08:30am 25.8 27.7 22.1 80 2.5 E 15 28 8 15 1014.6 1014.5 0.0
20/08:00am 24.3 27.5 22.4 89 1.3 ESE 9 17 5 9 1014.3 1014.2 0.0
20/07:30am 22.7 26.0 21.9 95 0.5 SE 7 9 4 5 1013.9 1013.8 0.0
20/07:00am 22.3 25.4 21.5 95 0.5 SE 7 9 4 5 1013.6 1013.5 0.0
20/06:30am 22.5 25.7 21.7 95 0.5 ESE 7 9 4 5 1013.4 1013.3 0.0
20/06:00am 22.9 26.4 22.2 96 0.5 SE 7 9 4 5 1013.1 1013.0 0.0
20/05:30am 22.7 26.2 21.9 95 0.5 SE 6 7 3 4 1012.8 1012.7 0.0
20/05:00am 22.7 26.1 21.7 94 0.7 ESE 6 6 3 3 1012.5 1012.4 0.0
20/04:30am 23.0 26.6 22.0 94 0.7 E 6 7 3 4 1012.5 1012.4 0.0
20/04:00am 23.2 27.0 22.4 95 0.5 ESE 6 9 3 5 1012.5 1012.4 0.0
20/03:30am 22.4 25.8 21.0 92 0.9 ESE 4 6 2 3 1012.5 1012.4 0.0
20/03:00am 23.2 26.7 22.2 94 0.7 E 7 9 4 5 1012.5 1012.4 0.0
20/02:30am 23.0 26.6 22.0 94 0.7 SE 6 7 3 4 1012.6 1012.5 0.0
20/02:00am 23.3 26.9 22.3 94 0.7 ESE 7 9 4 5 1012.8 1012.7 0.0
20/01:30am 23.0 26.4 22.0 94 0.7 E 7 11 4 6 1012.8 1012.7 0.0
20/01:00am 22.7 25.8 21.5 93 0.8 E 7 9 4 5 1013.1 1013.0 0.0
20/12:30am 22.6 25.7 21.4 93 0.8 E 7 7 4 4 1013.2 1013.1 0.0
20/12:00am 22.3 25.6 20.8 91 1.0 ESE 4 4 2 2 1013.4 1013.3 0.0
 
Date/Time
CST
Temp
°C
App
Temp
°C
Dew
Point
°C
Rel
Hum
%
Delta-T
°C
Wind Press
QNH
hPa
Press
MSL
hPa
Rain since
9am
mm
Dir  Spd
km/h
Gust
km/h
Spd
kts
Gust
kts
19/11:30pm 22.2 25.1 19.9 87 1.5 ESE 4 6 2 3 1013.5 1013.4 0.0
19/11:00pm 23.2 26.3 21.1 88 1.4 ENE 6 7 3 4 1013.4 1013.3 0.0
19/10:30pm 23.5 26.7 21.2 87 1.5 ENE 6 9 3 5 1013.4 1013.3 0.0
19/10:00pm 23.4 26.5 21.1 87 1.5 ENE 6 6 3 3 1013.2 1013.1 0.0
19/09:30pm 23.5 26.6 21.0 86 1.6 ENE 6 6 3 3 1013.0 1012.9 0.0
19/09:00pm 24.1 27.3 21.2 84 1.9 ENE 6 9 3 5 1012.8 1012.7 0.0
19/08:30pm 24.3 27.2 21.0 82 2.2 ENE 7 9 4 5 1012.8 1012.7 0.0
19/08:00pm 24.4 27.2 20.9 81 2.3 NE 7 9 4 5 1012.5 1012.4 0.0
19/07:30pm 24.7 27.7 20.8 79 2.6 ENE 6 7 3 4 1012.2 1012.1 0.0
19/07:00pm 25.4 28.2 20.9 76 3.0 ENE 7 11 4 6 1011.8 1011.7 0.0
19/06:30pm 26.2 27.8 20.8 72 3.6 ENE 13 19 7 10 1011.5 1011.4 0.0
19/06:00pm 27.1 28.0 20.9 69 4.1 NE 17 28 9 15 1011.1 1011.0 0.0
19/05:30pm 28.0 28.8 20.6 64 4.9 NE 17 24 9 13 1011.0 1010.9 0.0
19/05:00pm 28.9 29.7 20.6 61 5.5 ENE 17 24 9 13 1011.0 1010.9 0.0
19/04:30pm 29.8 30.3 20.1 56 6.4 ENE 17 26 9 14 1010.9 1010.8 0.0
19/04:00pm 30.2 30.8 20.2 55 6.6 E 17 26 9 14 1010.9 1010.8 0.0
19/03:30pm 30.1 29.6 19.2 52 7.1 ENE 20 32 11 17 1011.1 1011.0 0.0
19/03:00pm 30.1 30.1 20.1 55 6.6 ENE 20 30 11 16 1011.5 1011.4 0.0
19/02:30pm 31.2 32.1 20.8 54 6.9 ENE 17 26 9 14 1011.9 1011.8 0.0
19/02:00pm 30.7 30.7 19.7 52 7.2 E 19 28 10 15 1012.2 1012.1 0.0
19/01:30pm 30.3 30.1 20.5 55 6.5 ENE 22 35 12 19 1012.6 1012.5 0.0
19/01:00pm 30.9 30.7 19.3 50 7.6 E 19 32 10 17 1013.2 1013.1 0.0
19/12:30pm 30.0 30.6 21.1 59 5.9 E 19 32 10 17 1013.7 1013.6 0.0
19/12:00pm 29.6 30.2 21.0 60 5.7 ESE 19 30 10 16 1014.4 1014.3 0.0
19/11:30am 28.9 29.3 20.6 61 5.5 ESE 19 28 10 15 1014.8 1014.7 0.0
19/11:00am 29.3 29.7 21.0 61 5.5 ESE 20 28 11 15 1015.1 1015.0 0.0
19/10:30am 29.1 29.7 21.1 62 5.3 ESE 19 30 10 16 1015.4 1015.3 0.0
19/10:00am 29.1 29.4 20.3 59 5.8 ESE 19 30 10 16 1015.5 1015.4 0.0
19/09:30am 28.6 30.4 21.9 67 4.5 ESE 15 24 8 13 1015.3 1015.2 0.0
19/09:00am 27.8 29.7 22.1 71 3.8 ESE 15 22 8 12 1015.1 1015.0 0.0
19/08:30am 26.8 29.8 22.6 78 2.8 E 11 19 6 10 1014.8 1014.7 0.0
19/08:00am 25.2 29.2 22.7 86 1.7 E 6 11 3 6 1014.4 1014.3 0.0
19/07:30am 23.1 26.7 22.1 94 0.7 E 6 7 3 4 1014.0 1013.9 0.0
19/07:00am 21.8 24.7 20.6 93 0.8 ENE 6 6 3 3 1013.7 1013.6 0.0
19/06:30am 22.3 25.2 21.1 93 0.8 E 7 7 4 4 1013.4 1013.3 0.0
19/06:00am 22.7 25.5 21.5 93 0.8 ENE 9 9 5 5 1013.2 1013.1 0.0
19/05:30am 22.8 25.6 21.6 93 0.8 ENE 9 9 5 5 1013.0 1012.9 0.0
19/05:00am 22.8 25.6 21.6 93 0.8 ENE 9 11 5 6 1012.9 1012.8 0.0
19/04:30am 22.9 25.8 21.7 93 0.8 ENE 9 11 5 6 1012.7 1012.6 0.0
19/04:00am 23.0 25.9 21.8 93 0.8 ENE 9 13 5 7 1012.6 1012.5 0.0
19/03:30am 22.9 25.9 21.9 94 0.7 ENE 9 11 5 6 1012.7 1012.6 0.0
19/03:00am 22.6 25.7 21.4 93 0.8 ENE 7 9 4 5 1012.8 1012.7 0.0
19/02:30am 22.5 25.6 21.5 94 0.7 ENE 7 7 4 4 1012.8 1012.7 0.0
19/02:00am 22.4 25.5 21.0 92 0.9 E 6 6 3 3 1012.9 1012.8 0.0
19/01:30am 22.4 25.4 21.2 93 0.8 ENE 7 9 4 5 1013.0 1012.9 0.0
19/01:00am 22.4 25.3 20.7 90 1.1 ESE 6 7 3 4 1013.1 1013.0 0.0
19/12:30am 22.9 25.8 20.6 87 1.5 ESE 6 7 3 4 1013.2 1013.1 0.0
19/12:00am 23.4 26.3 21.1 87 1.5 ENE 7 11 4 6 1013.4 1013.3 0.0
 
Date/Time
CST
Temp
°C
App
Temp
°C
Dew
Point
°C
Rel
Hum
%
Delta-T
°C
Wind Press
QNH
hPa
Press
MSL
hPa
Rain since
9am
mm
Dir  Spd
km/h
Gust
km/h
Spd
kts
Gust
kts
18/11:30pm 22.7 25.6 20.6 88 1.4 E 6 7 3 4 1013.6 1013.5 0.0
18/11:00pm 22.7 25.2 19.1 80 2.3 E 4 6 2 3 1013.6 1013.5 0.0
18/10:30pm 23.8 26.5 20.7 83 2.0 ENE 7 9 4 5 1013.6 1013.5 0.0
18/10:00pm 23.9 26.7 20.8 83 2.0 ENE 7 11 4 6 1013.5 1013.4 0.0
18/09:30pm 24.2 26.5 20.7 81 2.3 ENE 9 13 5 7 1013.4 1013.3 0.0
18/09:00pm 24.0 26.3 20.7 82 2.2 ENE 9 11 5 6 1013.0 1012.9 0.0
18/08:30pm 24.1 26.9 20.4 80 2.4 E 6 9 3 5 1012.9 1012.8 0.0
18/08:00pm 24.6 26.9 20.7 79 2.6 NE 9 13 5 7 1012.5 1012.4 0.0
18/07:30pm 24.9 27.4 21.0 79 2.6 ENE 9 13 5 7 1012.3 1012.2 0.0
18/07:00pm 25.4 26.9 19.8 71 3.6 E 11 19 6 10 1012.1 1012.0 0.0
18/06:30pm 26.3 27.0 19.7 67 4.3 E 15 24 8 13 1011.9 1011.8 0.0
18/06:00pm 27.4 26.9 19.2 61 5.3 E 20 30 11 16 1011.6 1011.5 0.0
18/05:30pm 27.9 27.2 19.4 60 5.5 E 22 30 12 16 1011.3 1011.2 0.0
18/05:00pm 28.5 27.9 19.7 59 5.7 E 22 32 12 17 1011.1 1011.0 0.0
18/04:30pm 28.8 28.9 20.3 60 5.6 E 20 33 11 18 1010.9 1010.8 0.0
18/04:00pm 29.3 28.7 20.5 59 5.8 E 24 32 13 17 1010.9 1010.8 0.0
18/03:30pm 29.4 29.6 20.5 58 5.9 ESE 20 35 11 19 1011.0 1010.9 0.0
18/03:00pm 29.7 30.2 21.1 60 5.7 E 20 37 11 20 1011.2 1011.1 0.0
18/02:30pm 30.0 30.6 21.4 60 5.8 ESE 20 32 11 17 1011.4 1011.3 0.0
18/02:00pm 29.5 29.1 20.9 60 5.7 E 24 37 13 20 1011.8 1011.7 0.0
18/01:30pm 29.4 29.3 20.8 60 5.7 ESE 22 33 12 18 1012.2 1012.1 0.0
18/01:00pm 29.1 29.6 21.1 62 5.3 ESE 20 32 11 17 1012.7 1012.6 0.0
18/12:30pm 30.0 30.8 21.7 61 5.6 E 20 32 11 17 1012.9 1012.8 0.0
18/12:00pm 29.9 30.3 20.7 57 6.1 E 19 30 10 16 1013.4 1013.3 0.0
18/11:30am 28.0 27.8 19.8 61 5.3 ESE 20 30 11 16 1013.8 1013.7 0.0
18/11:00am 28.3 28.0 19.5 59 5.7 ESE 20 32 11 17 1014.0 1013.9 0.0
18/10:30am 28.0 27.7 20.3 63 5.1 ESE 22 37 12 20 1014.3 1014.2 0.0
18/10:00am 28.3 27.8 20.8 63 5.0 ESE 24 32 13 17 1014.2 1014.1 0.0
18/09:30am 28.1 29.7 22.1 70 4.0 ESE 17 26 9 14 1014.0 1013.9 0.0
18/09:00am 27.4 29.2 21.9 72 3.7 ESE 15 24 8 13 1013.9 1013.8 0.0
18/08:30am 26.8 27.9 21.3 72 3.7 E 17 28 9 15 1013.7 1013.6 0.0
18/08:00am 25.9 27.7 21.8 78 2.7 E 15 22 8 12 1013.4 1013.3 0.0
18/07:30am 24.3 27.9 22.0 87 1.5 E 6 9 3 5 1013.1 1013.0 0.0
18/07:00am 23.8 27.0 21.7 88 1.4 E 7 9 4 5 1012.8 1012.7 0.0
18/06:30am 23.9 27.0 22.2 90 1.1 E 9 13 5 7 1012.4 1012.3 0.0
18/06:00am 23.5 27.1 22.3 93 0.8 ENE 7 11 4 6 1012.1 1012.0 0.0
18/05:30am 21.8 25.7 20.4 92 0.9 CALM 0 0 0 0 1011.8 1011.7 0.0
18/05:00am 21.7 25.4 20.0 90 1.1 CALM 0 0 0 0 1011.5 1011.4 0.0
18/04:30am 22.6 26.5 21.1 91 1.0 E 2 4 1 2 1011.3 1011.2 0.0
18/04:00am 22.6 26.3 21.4 93 0.8 ENE 4 4 2 2 1011.3 1011.2 0.0
18/03:30am 22.5 25.8 21.5 94 0.7 E 6 6 3 3 1011.2 1011.1 0.0
18/03:00am 21.6 24.8 20.4 93 0.8 E 4 4 2 2 1011.1 1011.0 0.0
18/02:30am 22.2 25.6 21.0 93 0.8 E 4 6 2 3 1011.1 1011.0 0.0
18/02:00am 21.9 25.2 20.7 93 0.8 ESE 4 6 2 3 1011.3 1011.2 0.0
18/01:30am 22.0 25.1 21.0 94 0.7 ESE 6 6 3 3 1011.3 1011.2 0.0
18/01:00am 21.5 24.6 20.3 93 0.8 E 4 4 2 2 1011.3 1011.2 0.0
18/12:30am 21.4 24.7 19.9 91 1.0 E 2 4 1 2 1011.4 1011.3 0.0
18/12:00am 21.6 24.5 19.9 90 1.1 E 4 6 2 3 1011.3 1011.2 0.0
 
Date/Time
CST
Temp
°C
App
Temp
°C
Dew
Point
°C
Rel
Hum
%
Delta-T
°C
Wind Press
QNH
hPa
Press
MSL
hPa
Rain since
9am
mm
Dir  Spd
km/h
Gust
km/h
Spd
kts
Gust
kts
17/11:30pm 21.7 24.5 19.6 88 1.3 E 4 6 2 3 1011.5 1011.4 0.0
17/11:00pm 21.9 24.8 19.8 88 1.3 E 4 4 2 2 1011.5 1011.4 0.0
17/10:30pm 22.2 25.2 19.2 83 1.9 ENE 2 4 1 2 1011.5 1011.4 0.0
17/10:00pm 23.5 26.4 20.6 84 1.9 ENE 6 7 3 4 1011.6 1011.5 0.0
17/09:30pm 23.8 27.0 20.5 82 2.1 ENE 4 6 2 3 1011.5 1011.4 0.0
17/09:00pm 24.2 27.1 20.7 81 2.3 ENE 6 9 3 5 1011.3 1011.2 0.0
17/08:30pm 24.2 27.1 20.7 81 2.3 ENE 6 7 3 4 1011.1 1011.0 0.0
17/08:00pm 24.4 27.3 20.7 80 2.4 ENE 6 7 3 4 1010.8 1010.7 0.0
17/07:30pm 24.9 27.8 20.6 77 2.8 ENE 6 7 3 4 1010.5 1010.4 0.0

Other Formats:

Comma delimited format used in spreadsheet applications
http://www.bom.gov.au/fwo/IDD60801/IDD60801.94108.axf

JavaScript Object Notation format (JSON) in row-major order
http://www.bom.gov.au/fwo/IDD60801/IDD60801.94108.json